Time;durP1;ratioP1;P1;durP2;ratioP2;P2;SDS_P1;SDS_P2;PMS_P1;PMS_P2;Temp;Humidity;BMP_temperature;BMP_pressure;BME280_temperature;BME280_humidity;BME280_pressure;Samples;Min_cycle;Max_cycle;Signal;HPM_P1;HPM_P2
2023/01/19 00:00:14;;;;;;;4.95;2.03;;;1.00;99.90;;;;;;5092856;28;20043;-62
2023/01/19 00:02:42;;;;;;;3.00;1.92;;;0.80;99.90;;;;;;5093430;28;20019;-61
2023/01/19 00:05:08;;;;;;;4.45;2.35;;;0.90;99.90;;;;;;5092963;28;20077;-61
2023/01/19 00:07:34;;;;;;;4.15;2.25;;;0.90;99.90;;;;;;5092683;28;20024;-60
2023/01/19 00:09:59;;;;;;;4.15;2.10;;;1.00;99.90;;;;;;5092765;28;20127;-62
2023/01/19 00:12:25;;;;;;;3.50;2.20;;;1.00;99.90;;;;;;5092316;28;20369;-62
2023/01/19 00:14:51;;;;;;;3.05;2.15;;;1.10;99.90;;;;;;5092678;28;20047;-60
2023/01/19 00:17:17;;;;;;;4.10;1.83;;;1.10;99.90;;;;;;5093015;28;20048;-60
2023/01/19 00:19:42;;;;;;;4.30;3.17;;;1.10;99.90;;;;;;5092758;28;20063;-60
2023/01/19 00:22:08;;;;;;;7.43;4.90;;;1.10;99.90;;;;;;5092681;28;20020;-62
2023/01/19 00:24:34;;;;;;;10.75;8.52;;;1.20;99.90;;;;;;5092565;28;20052;-62
2023/01/19 00:27:02;;;;;;;11.73;7.75;;;1.20;99.90;;;;;;5092256;28;20442;-62
2023/01/19 00:29:32;;;;;;;8.20;6.43;;;1.30;99.90;;;;;;5092662;28;20024;-62
2023/01/19 00:32:02;;;;;;;8.27;6.53;;;1.20;99.90;;;;;;5092481;28;20032;-62
2023/01/19 00:34:35;;;;;;;8.60;6.43;;;1.30;99.90;;;;;;5092833;28;20062;-62
2023/01/19 00:37:02;;;;;;;12.82;8.40;;;1.30;99.90;;;;;;5092493;28;20028;-61
2023/01/19 00:39:28;;;;;;;7.97;6.43;;;1.20;99.90;;;;;;5092513;28;20036;-62
2023/01/19 00:44:38;;;;;;;9.50;6.22;;;1.40;99.90;;;;;;5093233;28;20039;-62
2023/01/19 00:47:04;;;;;;;10.35;7.43;;;1.80;99.90;;;;;;5092312;28;20455;-62
2023/01/19 00:49:30;;;;;;;6.00;4.57;;;1.90;99.90;;;;;;5092456;28;20477;-62
2023/01/19 00:51:56;;;;;;;7.50;3.97;;;2.10;99.90;;;;;;5092288;28;20020;-62
2023/01/19 00:54:22;;;;;;;8.32;7.15;;;2.10;99.90;;;;;;5091897;28;20035;-61
2023/01/19 00:56:47;;;;;;;5.85;4.53;;;2.20;99.90;;;;;;5092118;28;20046;-62
2023/01/19 00:59:13;;;;;;;5.00;3.30;;;2.10;99.90;;;;;;5092259;28;20369;-62
2023/01/19 01:01:39;;;;;;;7.40;6.28;;;2.20;99.90;;;;;;5092102;28;20103;-61
2023/01/19 01:04:05;;;;;;;6.70;4.35;;;2.30;99.90;;;;;;5092179;28;20051;-61
2023/01/19 01:06:30;;;;;;;4.63;2.03;;;2.20;99.90;;;;;;5091958;28;20017;-62
2023/01/19 01:08:56;;;;;;;5.85;2.17;;;2.20;99.90;;;;;;5092180;28;20111;-61
2023/01/19 01:11:22;;;;;;;4.07;2.13;;;2.30;99.90;;;;;;5092121;28;20408;-61
2023/01/19 01:13:47;;;;;;;5.32;2.92;;;2.30;99.90;;;;;;5092109;28;20047;-61
2023/01/19 01:16:15;;;;;;;4.13;2.20;;;2.40;99.90;;;;;;5092014;28;20024;-61
2023/01/19 01:18:41;;;;;;;4.68;2.00;;;2.30;99.90;;;;;;5092180;28;20024;-61
2023/01/19 01:21:07;;;;;;;3.20;1.58;;;2.20;99.90;;;;;;5092100;28;20028;-61
2023/01/19 01:23:33;;;;;;;4.78;1.95;;;2.30;99.90;;;;;;5091640;28;20032;-61
2023/01/19 01:25:59;;;;;;;4.07;1.70;;;2.30;99.90;;;;;;5091955;28;20016;-61
2023/01/19 01:28:25;;;;;;;3.15;1.40;;;2.20;99.90;;;;;;5091984;28;20028;-61
2023/01/19 01:30:55;;;;;;;3.10;1.60;;;2.20;99.90;;;;;;5095300;28;20020;-61
2023/01/19 01:33:21;;;;;;;3.88;1.55;;;2.00;99.90;;;;;;5095814;28;20098;-61
2023/01/19 01:35:48;;;;;;;4.18;2.17;;;2.10;99.90;;;;;;5095851;28;20099;-61
2023/01/19 01:38:14;;;;;;;5.25;2.20;;;2.20;99.90;;;;;;5095543;28;20027;-61
2023/01/19 01:40:40;;;;;;;5.20;2.00;;;2.20;99.90;;;;;;5096076;28;20361;-61
2023/01/19 01:43:11;;;;;;;4.28;1.60;;;2.30;99.90;;;;;;5095865;28;20107;-61
2023/01/19 01:45:39;;;;;;;3.35;1.40;;;2.30;99.90;;;;;;5095516;28;20099;-61
2023/01/19 01:48:16;;;;;;;3.67;1.30;;;2.40;99.90;;;;;;5096013;28;20107;-61
2023/01/19 01:53:41;;;;;;;5.38;1.88;;;2.50;99.90;;;;;;5095124;28;20034;-61
2023/01/19 01:56:13;;;;;;;3.50;1.42;;;2.50;99.90;;;;;;5095384;28;20365;-61
2023/01/19 01:58:39;;;;;;;6.03;1.60;;;2.40;99.90;;;;;;5095367;28;20024;-61
2023/01/19 02:03:52;;;;;;;4.50;1.85;;;2.20;99.90;;;;;;5095266;28;20071;-61
2023/01/19 02:06:18;;;;;;;4.65;1.95;;;2.10;99.90;;;;;;5095165;28;20449;-61
2023/01/19 02:14:17;;;;;;;4.70;1.70;;;2.10;99.90;;;;;;5095045;28;20560;-61
2023/01/19 02:16:44;;;;;;;5.90;1.92;;;2.00;99.90;;;;;;5095097;28;20032;-61
2023/01/19 02:19:14;;;;;;;2.45;1.30;;;1.90;99.90;;;;;;5095431;28;20031;-61
2023/01/19 02:21:50;;;;;;;7.55;2.10;;;1.80;99.90;;;;;;5094245;28;20032;-61
2023/01/19 02:24:17;;;;;;;5.68;2.20;;;1.80;99.90;;;;;;5094688;28;20048;-61
2023/01/19 02:26:45;;;;;;;7.15;2.10;;;1.80;99.90;;;;;;5095386;28;20024;-61
2023/01/19 02:29:18;;;;;;;4.22;1.80;;;1.70;99.90;;;;;;5093364;28;20392;-61
2023/01/19 02:31:44;;;;;;;8.18;2.10;;;1.70;99.90;;;;;;5094899;28;20028;-61
2023/01/19 02:34:14;;;;;;;5.68;2.20;;;1.70;99.90;;;;;;5094616;28;20109;-61
2023/01/19 02:37:02;;;;;;;5.93;2.33;;;1.70;99.90;;;;;;5094562;28;20110;-61
2023/01/19 02:39:44;;;;;;;4.95;2.33;;;1.80;99.90;;;;;;5094528;28;20024;-61
2023/01/19 02:42:17;;;;;;;13.60;9.27;;;1.90;99.90;;;;;;5094505;28;20370;-61
2023/01/19 02:44:45;;;;;;;25.52;20.73;;;2.00;99.90;;;;;;5094545;28;20105;-61
2023/01/19 02:47:12;;;;;;;23.00;19.48;;;2.00;99.90;;;;;;5094602;28;20034;-61
2023/01/19 02:49:38;;;;;;;13.50;7.30;;;2.00;99.90;;;;;;5094897;28;20034;-61
2023/01/19 02:52:04;;;;;;;13.82;6.90;;;2.00;99.90;;;;;;5094029;28;20028;-61
2023/01/19 02:54:39;;;;;;;7.65;3.90;;;2.00;99.90;;;;;;5094205;28;20496;-61
2023/01/19 02:57:34;;;;;;;7.18;2.53;;;2.00;99.90;;;;;;5094294;28;20472;-61
2023/01/19 03:00:11;;;;;;;6.15;2.50;;;2.10;99.90;;;;;;5094551;28;20369;-61
2023/01/19 03:03:14;;;;;;;4.38;2.15;;;2.10;99.90;;;;;;5094697;28;20024;-62
2023/01/19 03:05:55;;;;;;;5.72;1.98;;;2.10;99.90;;;;;;5093828;28;20026;-61
2023/01/19 03:08:27;;;;;;;4.75;1.70;;;2.10;99.90;;;;;;5093988;28;20529;-61
2023/01/19 03:11:03;;;;;;;4.90;1.40;;;2.30;99.90;;;;;;5093907;28;20048;-62
2023/01/19 03:14:05;;;;;;;5.43;1.60;;;2.30;99.90;;;;;;5093921;28;20085;-61
2023/01/19 03:16:38;;;;;;;5.60;1.65;;;2.70;99.90;;;;;;5094086;28;20027;-62
2023/01/19 03:19:15;;;;;;;6.20;1.83;;;2.70;99.90;;;;;;5094053;28;20101;-61
2023/01/19 03:21:44;;;;;;;5.00;1.25;;;2.90;99.90;;;;;;5093865;28;20032;-61
2023/01/19 03:24:12;;;;;;;4.40;1.40;;;2.80;99.90;;;;;;5094110;28;20024;-61
2023/01/19 03:26:45;;;;;;;2.65;1.15;;;2.80;99.90;;;;;;5093870;28;20020;-62
2023/01/19 03:29:13;;;;;;;4.55;1.30;;;2.80;99.90;;;;;;5093830;28;20024;-61
2023/01/19 03:31:43;;;;;;;7.07;1.42;;;2.70;99.90;;;;;;5093655;28;20103;-61
2023/01/19 03:34:11;;;;;;;6.13;1.50;;;2.70;99.90;;;;;;5093477;28;20553;-61
2023/01/19 03:36:57;;;;;;;6.78;1.40;;;2.70;99.90;;;;;;5093363;28;20434;-61
2023/01/19 03:39:25;;;;;;;3.92;1.00;;;2.70;99.90;;;;;;5093189;28;20040;-61
2023/01/19 03:41:56;;;;;;;7.05;1.60;;;2.60;99.90;;;;;;5093371;28;20016;-61
2023/01/19 03:44:24;;;;;;;3.22;1.10;;;2.50;99.90;;;;;;5093434;28;20052;-61
2023/01/19 03:46:51;;;;;;;5.43;1.65;;;2.50;99.90;;;;;;5093317;28;20028;-62
2023/01/19 03:49:17;;;;;;;4.32;1.30;;;2.60;99.90;;;;;;5092953;28;20024;-61
2023/01/19 03:51:43;;;;;;;4.47;1.42;;;2.60;99.90;;;;;;5093000;28;20488;-61
2023/01/19 03:54:10;;;;;;;5.63;1.27;;;2.60;99.90;;;;;;5093218;28;20032;-61
2023/01/19 03:56:36;;;;;;;4.45;1.42;;;2.60;99.90;;;;;;5093210;28;20101;-61
2023/01/19 03:59:04;;;;;;;3.47;1.30;;;2.70;99.90;;;;;;5093207;28;20487;-61
2023/01/19 04:01:30;;;;;;;5.82;1.52;;;2.60;99.90;;;;;;5093391;28;20376;-61
2023/01/19 04:03:56;;;;;;;3.33;1.20;;;2.70;99.90;;;;;;5093051;28;20035;-61
2023/01/19 04:06:22;;;;;;;5.32;1.45;;;2.60;99.90;;;;;;5092971;28;20028;-61
2023/01/19 04:08:49;;;;;;;4.05;1.30;;;2.60;99.90;;;;;;5092918;28;20390;-61
2023/01/19 04:11:15;;;;;;;4.88;1.30;;;2.50;99.90;;;;;;5092850;28;20067;-61
2023/01/19 04:13:41;;;;;;;5.03;1.40;;;2.50;99.90;;;;;;5093213;28;20497;-61
2023/01/19 04:16:06;;;;;;;4.45;1.10;;;2.40;99.90;;;;;;5092830;28;20016;-61
2023/01/19 04:18:33;;;;;;;4.68;1.63;;;2.20;99.90;;;;;;5092373;28;20024;-61
2023/01/19 04:21:00;;;;;;;5.38;1.38;;;2.20;99.90;;;;;;5092864;28;20017;-61
2023/01/19 04:23:26;;;;;;;3.78;1.10;;;2.10;99.90;;;;;;5091383;28;20028;-61
2023/01/19 04:25:59;;;;;;;3.83;1.40;;;2.00;99.90;;;;;;5092631;28;20046;-62
2023/01/19 04:28:26;;;;;;;3.97;1.30;;;1.90;99.90;;;;;;5092698;28;20432;-61
2023/01/19 04:30:52;;;;;;;4.25;1.13;;;1.90;99.90;;;;;;5092965;28;20481;-61
2023/01/19 04:33:18;;;;;;;5.05;1.55;;;1.80;99.90;;;;;;5091964;28;20035;-61
2023/01/19 04:35:45;;;;;;;6.45;1.60;;;1.60;99.90;;;;;;5092562;28;20489;-61
2023/01/19 04:38:10;;;;;;;3.30;1.50;;;1.50;99.90;;;;;;5092374;28;20125;-61
2023/01/19 04:40:36;;;;;;;5.53;1.40;;;1.50;99.90;;;;;;5092613;28;20058;-61
2023/01/19 04:43:02;;;;;;;4.68;1.20;;;1.40;99.90;;;;;;5092690;28;20065;-61
2023/01/19 04:45:27;;;;;;;4.45;1.67;;;1.40;99.90;;;;;;5092398;28;20043;-61
2023/01/19 04:47:53;;;;;;;7.20;1.50;;;1.40;99.90;;;;;;5092153;28;20488;-61
2023/01/19 04:50:19;;;;;;;3.83;1.63;;;1.40;99.90;;;;;;5092319;28;20042;-61
2023/01/19 04:52:45;;;;;;;6.10;1.67;;;1.40;99.90;;;;;;5092126;28;20020;-61
2023/01/19 04:55:11;;;;;;;3.78;1.55;;;1.40;99.90;;;;;;5092728;28;20192;-61
2023/01/19 04:57:37;;;;;;;4.35;1.75;;;1.40;99.90;;;;;;5092304;28;20024;-61
2023/01/19 05:00:05;;;;;;;6.38;1.65;;;1.40;99.90;;;;;;5092142;28;20119;-61
2023/01/19 05:02:31;;;;;;;3.95;1.52;;;1.40;99.90;;;;;;5091643;28;20055;-61
2023/01/19 05:04:57;;;;;;;3.78;1.42;;;1.30;99.90;;;;;;5093773;28;20047;-61
2023/01/19 05:07:22;;;;;;;2.80;1.60;;;1.30;99.90;;;;;;5096226;28;20516;-61
2023/01/19 05:09:48;;;;;;;4.35;1.80;;;1.20;99.90;;;;;;5096607;28;20048;-61
2023/01/19 05:12:14;;;;;;;4.05;1.50;;;1.30;99.90;;;;;;5096273;28;20048;-62
2023/01/19 05:14:40;;;;;;;3.78;1.25;;;1.20;99.90;;;;;;5095971;28;20043;-61
2023/01/19 05:17:06;;;;;;;3.45;1.60;;;1.30;99.90;;;;;;5095987;28;20034;-61
2023/01/19 05:19:31;;;;;;;4.05;1.30;;;1.20;99.90;;;;;;5096565;28;20088;-62
2023/01/19 05:21:57;;;;;;;3.67;1.60;;;1.20;99.90;;;;;;5096238;28;20476;-62
2023/01/19 05:24:23;;;;;;;4.68;1.80;;;1.00;99.90;;;;;;5096137;28;20465;-60
2023/01/19 05:26:48;;;;;;;4.95;1.80;;;1.10;99.90;;;;;;5096334;28;20022;-60
2023/01/19 05:29:14;;;;;;;4.68;1.75;;;1.10;99.90;;;;;;5096138;28;20395;-62
2023/01/19 05:31:40;;;;;;;3.20;1.50;;;1.20;99.90;;;;;;5095604;28;20020;-60
2023/01/19 05:34:05;;;;;;;4.63;1.55;;;1.20;99.90;;;;;;5095691;28;20396;-62
2023/01/19 05:36:31;;;;;;;3.10;1.63;;;1.10;99.90;;;;;;5095768;28;20016;-62
2023/01/19 05:38:57;;;;;;;4.72;1.80;;;1.10;99.90;;;;;;5096330;28;20035;-62
2023/01/19 05:41:23;;;;;;;3.72;2.05;;;1.10;99.90;;;;;;5095854;28;20035;-61
2023/01/19 05:43:48;;;;;;;3.15;1.80;;;1.00;99.90;;;;;;5095842;28;20550;-61
2023/01/19 05:46:14;;;;;;;2.80;1.67;;;1.00;99.90;;;;;;5095085;28;20031;-61
2023/01/19 05:48:40;;;;;;;2.60;1.52;;;1.00;99.90;;;;;;5095554;28;20032;-61
2023/01/19 05:51:06;;;;;;;4.93;1.80;;;1.10;99.90;;;;;;5096028;28;20020;-60
2023/01/19 05:53:32;;;;;;;4.28;1.73;;;1.00;99.90;;;;;;5095493;28;20541;-62
2023/01/19 05:56:09;;;;;;;4.32;1.80;;;1.00;99.90;;;;;;5095583;28;20074;-61
2023/01/19 05:58:38;;;;;;;3.92;1.70;;;1.10;99.90;;;;;;5095409;28;20028;-61
2023/01/19 06:01:05;;;;;;;2.90;1.52;;;1.10;99.90;;;;;;5095680;28;20032;-62
2023/01/19 06:03:32;;;;;;;2.60;1.60;;;1.30;99.90;;;;;;5095355;28;20044;-61
2023/01/19 06:05:59;;;;;;;2.95;1.42;;;1.30;99.90;;;;;;5095307;28;20034;-61
2023/01/19 06:08:25;;;;;;;2.67;1.48;;;1.30;99.90;;;;;;5095163;28;20060;-60
2023/01/19 06:10:50;;;;;;;4.28;1.80;;;1.40;99.90;;;;;;5095040;28;20543;-62
2023/01/19 06:13:16;;;;;;;4.13;2.78;;;1.40;99.90;;;;;;5095009;28;20476;-61
2023/01/19 06:15:43;;;;;;;8.73;6.05;;;1.50;99.90;;;;;;5094677;28;20105;-62
2023/01/19 06:18:10;;;;;;;5.18;4.10;;;1.60;99.90;;;;;;5094992;28;20111;-62
2023/01/19 06:20:36;;;;;;;4.75;2.83;;;1.60;99.90;;;;;;5095051;28;20099;-62
2023/01/19 06:23:02;;;;;;;5.80;2.50;;;1.60;99.90;;;;;;5094871;28;20107;-61
2023/01/19 06:25:27;;;;;;;3.33;2.67;;;1.80;99.90;;;;;;5095314;28;20028;-62
2023/01/19 06:27:53;;;;;;;7.55;3.53;;;1.90;99.90;;;;;;5094514;28;20078;-62
2023/01/19 06:30:19;;;;;;;5.05;3.05;;;2.00;99.90;;;;;;5094778;28;20031;-62
2023/01/19 06:32:46;;;;;;;3.42;3.05;;;2.00;99.90;;;;;;5094744;28;20020;-62
2023/01/19 06:35:12;;;;;;;5.13;2.88;;;2.10;99.90;;;;;;5094632;28;20115;-62
2023/01/19 06:37:38;;;;;;;3.97;2.83;;;2.10;99.90;;;;;;5094688;28;20020;-60
2023/01/19 06:40:05;;;;;;;5.15;2.80;;;2.10;99.90;;;;;;5094698;28;20425;-62
2023/01/19 06:42:31;;;;;;;5.10;3.20;;;2.10;99.90;;;;;;5094170;28;20499;-62
2023/01/19 06:44:57;;;;;;;3.92;3.10;;;2.20;99.90;;;;;;5093618;28;20028;-62
2023/01/19 06:47:23;;;;;;;6.55;3.40;;;2.20;99.90;;;;;;5094394;28;20024;-61
2023/01/19 06:49:48;;;;;;;4.32;2.78;;;2.30;99.90;;;;;;5094442;28;20067;-62
2023/01/19 06:52:16;;;;;;;10.10;3.63;;;2.30;99.90;;;;;;5094744;28;20027;-60
2023/01/19 06:54:43;;;;;;;7.13;3.00;;;2.30;99.90;;;;;;5094055;28;20032;-62
2023/01/19 06:57:10;;;;;;;6.03;3.10;;;2.30;99.90;;;;;;5094073;28;20112;-61
2023/01/19 06:59:37;;;;;;;4.65;2.50;;;2.30;99.90;;;;;;5094143;28;20056;-62
2023/01/19 07:02:03;;;;;;;6.25;2.67;;;2.40;99.90;;;;;;5094547;28;20175;-60
2023/01/19 07:04:28;;;;;;;4.45;2.70;;;2.40;99.90;;;;;;5094158;28;20082;-60
2023/01/19 07:06:54;;;;;;;6.68;3.10;;;2.40;99.90;;;;;;5093861;28;20438;-59
2023/01/19 07:09:20;;;;;;;4.95;3.22;;;2.40;99.90;;;;;;5093821;28;20048;-62
2023/01/19 07:11:47;;;;;;;4.95;3.45;;;2.30;99.90;;;;;;5093622;28;20395;-61
2023/01/19 07:14:12;;;;;;;4.85;3.92;;;2.30;99.90;;;;;;5094024;28;20143;-62
2023/01/19 07:16:38;;;;;;;7.30;4.30;;;2.40;99.90;;;;;;5094004;28;20512;-62
2023/01/19 07:19:04;;;;;;;6.32;4.10;;;2.30;99.90;;;;;;5093829;28;20038;-62
2023/01/19 07:21:30;;;;;;;11.77;8.68;;;2.40;99.90;;;;;;5093811;28;20063;-61
2023/01/19 07:23:56;;;;;;;7.35;4.15;;;2.50;99.90;;;;;;5093641;28;20020;-59
2023/01/19 07:26:23;;;;;;;6.22;4.18;;;2.50;99.90;;;;;;5093230;28;20035;-62
2023/01/19 07:28:51;;;;;;;10.57;7.30;;;2.50;99.90;;;;;;5092885;28;20439;-62
2023/01/19 07:31:17;;;;;;;8.38;6.40;;;2.50;99.90;;;;;;5094005;28;20024;-61
2023/01/19 07:33:43;;;;;;;10.38;6.10;;;2.60;99.90;;;;;;5093597;28;20104;-61
2023/01/19 07:36:09;;;;;;;8.40;5.28;;;2.50;99.90;;;;;;5093546;28;20488;-62
2023/01/19 07:38:34;;;;;;;8.35;4.85;;;2.50;99.90;;;;;;5093532;28;20024;-62
2023/01/19 07:41:02;;;;;;;7.80;4.70;;;2.60;99.90;;;;;;5093601;28;20051;-61
2023/01/19 07:43:28;;;;;;;6.13;3.95;;;2.60;99.90;;;;;;5093274;28;20023;-62
2023/01/19 07:45:58;;;;;;;7.30;3.97;;;2.70;99.90;;;;;;5093257;28;20028;-61
2023/01/19 07:48:24;;;;;;;6.70;3.75;;;2.80;99.90;;;;;;5093384;28;20551;-61
2023/01/19 07:50:50;;;;;;;6.05;3.60;;;2.80;99.90;;;;;;5093110;28;20032;-62
2023/01/19 07:53:16;;;;;;;9.00;4.78;;;2.90;99.90;;;;;;5093250;28;20020;-62
2023/01/19 07:55:42;;;;;;;7.72;4.20;;;2.90;99.90;;;;;;5093259;28;20492;-61
2023/01/19 07:58:08;;;;;;;7.75;4.72;;;2.80;99.90;;;;;;5092837;28;20020;-61
2023/01/19 08:00:36;;;;;;;14.98;10.82;;;2.80;99.90;;;;;;5093114;28;20028;-61
2023/01/19 08:03:04;;;;;;;20.83;18.60;;;2.80;99.90;;;;;;5093173;28;20032;-61
2023/01/19 08:05:31;;;;;;;28.98;25.92;;;2.80;99.90;;;;;;5093423;28;20095;-61
2023/01/19 08:07:58;;;;;;;21.15;14.02;;;2.80;99.90;;;;;;5092805;28;20559;-61
2023/01/19 08:10:25;;;;;;;17.63;14.93;;;2.80;99.90;;;;;;5092407;28;20044;-61
2023/01/19 08:12:55;;;;;;;18.92;14.95;;;2.80;99.90;;;;;;5092816;28;20020;-61
2023/01/19 08:15:23;;;;;;;21.45;13.93;;;2.90;99.90;;;;;;5093163;28;20500;-61
2023/01/19 08:17:59;;;;;;;17.95;12.77;;;2.90;99.90;;;;;;5093003;28;20028;-61
2023/01/19 08:20:26;;;;;;;11.88;9.15;;;2.90;99.90;;;;;;5092862;28;20039;-61
2023/01/19 08:22:58;;;;;;;15.95;11.05;;;3.00;99.90;;;;;;5092756;28;20042;-61
2023/01/19 08:25:43;;;;;;;15.57;10.60;;;3.00;99.90;;;;;;5092086;28;20514;-61
2023/01/19 08:28:11;;;;;;;16.90;13.27;;;3.00;99.90;;;;;;5092619;28;20107;-61
2023/01/19 08:30:39;;;;;;;16.75;15.07;;;3.10;99.90;;;;;;5092535;28;20424;-61
2023/01/19 08:33:08;;;;;;;30.77;26.40;;;3.20;99.90;;;;;;5092883;28;20028;-61
2023/01/19 08:35:36;;;;;;;22.58;20.27;;;3.20;99.90;;;;;;5092231;28;20032;-61
2023/01/19 08:38:04;;;;;;;19.55;17.45;;;3.20;99.90;;;;;;5092598;28;20046;-62
2023/01/19 08:40:34;;;;;;;14.32;11.15;;;3.20;99.90;;;;;;5092130;28;20084;-62
2023/01/19 08:43:06;;;;;;;13.18;9.70;;;3.30;99.90;;;;;;5092439;28;20107;-61
2023/01/19 08:45:31;;;;;;;11.27;7.68;;;3.30;99.90;;;;;;5092417;28;20039;-62
2023/01/19 08:47:58;;;;;;;9.93;6.15;;;3.30;99.90;;;;;;5092530;28;20020;-61
2023/01/19 08:50:25;;;;;;;8.00;5.78;;;3.30;99.90;;;;;;5089261;28;20040;-60
2023/01/19 08:52:51;;;;;;;7.88;4.53;;;3.40;99.90;;;;;;5071969;28;20104;-60
2023/01/19 08:55:16;;;;;;;6.30;3.00;;;3.40;99.90;;;;;;5072263;28;20120;-60
2023/01/19 08:57:42;;;;;;;6.18;2.38;;;3.40;99.90;;;;;;5072398;28;20115;-60
2023/01/19 09:00:10;;;;;;;3.80;2.53;;;3.40;99.90;;;;;;5072263;28;20422;-61
2023/01/19 09:02:36;;;;;;;5.13;2.00;;;3.50;99.90;;;;;;5071976;28;20370;-62
2023/01/19 09:05:03;;;;;;;4.63;2.22;;;3.50;99.90;;;;;;5072038;28;20036;-62
2023/01/19 09:07:29;;;;;;;4.57;1.75;;;3.60;99.90;;;;;;5083520;28;20052;-61
2023/01/19 09:09:55;;;;;;;4.50;1.98;;;3.60;99.90;;;;;;5092236;28;20055;-62
2023/01/19 09:12:21;;;;;;;5.90;1.83;;;3.80;99.90;;;;;;5092314;28;20039;-61
2023/01/19 09:14:46;;;;;;;8.25;6.18;;;3.70;99.90;;;;;;5091971;28;20033;-61
2023/01/19 09:17:13;;;;;;;2.92;1.52;;;3.60;99.90;;;;;;5092265;28;20028;-62
2023/01/19 09:19:40;;;;;;;5.63;1.95;;;3.70;99.90;;;;;;5092408;28;20044;-61
2023/01/19 09:22:05;;;;;;;5.70;1.70;;;3.70;99.90;;;;;;5091790;28;20028;-60
2023/01/19 09:24:32;;;;;;;4.53;1.60;;;3.70;99.90;;;;;;5092037;28;20077;-60
2023/01/19 09:26:57;;;;;;;3.88;1.50;;;3.80;99.90;;;;;;5092181;28;20028;-61
2023/01/19 09:29:23;;;;;;;5.15;1.90;;;3.80;99.90;;;;;;5091496;28;20046;-61
2023/01/19 09:31:49;;;;;;;6.30;2.03;;;3.80;99.90;;;;;;5091645;28;20380;-61
2023/01/19 09:34:15;;;;;;;5.45;2.00;;;3.80;99.90;;;;;;5107403;28;20085;-61
2023/01/19 09:36:40;;;;;;;6.82;2.65;;;3.90;99.90;;;;;;5091525;28;20042;-61
2023/01/19 09:39:06;;;;;;;5.07;2.30;;;3.90;99.90;;;;;;5092231;28;20016;-61
2023/01/19 09:41:35;;;;;;;5.65;2.42;;;3.90;99.90;;;;;;5091938;28;20091;-61
2023/01/19 09:44:01;;;;;;;5.85;2.50;;;4.00;99.90;;;;;;5091790;28;20027;-61
2023/01/19 09:46:34;;;;;;;5.45;1.98;;;4.00;99.90;;;;;;5091651;28;20111;-61
2023/01/19 09:49:03;;;;;;;4.90;2.40;;;4.00;99.90;;;;;;5091615;28;20046;-61
2023/01/19 09:51:37;;;;;;;6.32;2.25;;;4.00;99.90;;;;;;5094061;28;20081;-60
2023/01/19 09:54:12;;;;;;;6.55;2.00;;;4.10;99.90;;;;;;5095383;28;20070;-61
2023/01/19 09:56:38;;;;;;;5.13;2.00;;;4.10;99.90;;;;;;5095566;28;20032;-61
2023/01/19 09:59:24;;;;;;;4.45;1.85;;;4.10;99.90;;;;;;5095518;28;20081;-61
2023/01/19 10:02:20;;;;;;;5.13;1.70;;;4.20;99.90;;;;;;5095415;28;20020;-61
2023/01/19 10:05:25;;;;;;;3.40;1.80;;;4.10;99.90;;;;;;5095641;28;20032;-61
2023/01/19 10:08:07;;;;;;;6.00;2.08;;;4.20;99.90;;;;;;5072623;28;20129;-61
2023/01/19 10:10:35;;;;;;;3.55;1.80;;;4.30;99.90;;;;;;5073013;28;20053;-61
2023/01/19 10:13:35;;;;;;;8.05;2.50;;;4.20;99.90;;;;;;5072505;28;20024;-61
2023/01/19 10:16:21;;;;;;;3.90;2.30;;;4.20;99.90;;;;;;5072796;28;20086;-61
2023/01/19 10:18:50;;;;;;;4.63;2.80;;;4.20;99.90;;;;;;5072679;28;20047;-61
2023/01/19 10:21:42;;;;;;;6.30;3.55;;;4.20;99.90;;;;;;5072173;28;20025;-61
2023/01/19 10:24:20;;;;;;;8.20;3.50;;;4.20;99.90;;;;;;5072362;28;20043;-61
2023/01/19 10:26:57;;;;;;;6.97;3.28;;;4.20;99.90;;;;;;5072388;28;20016;-61
2023/01/19 10:29:34;;;;;;;6.57;3.28;;;4.30;99.90;;;;;;5072574;28;20055;-61
2023/01/19 10:32:16;;;;;;;5.88;2.88;;;4.30;99.90;;;;;;5072346;28;20434;-61
2023/01/19 10:34:42;;;;;;;7.32;2.90;;;4.40;99.90;;;;;;5072367;28;20480;-61
2023/01/19 10:37:16;;;;;;;7.78;2.60;;;4.40;99.90;;;;;;5072194;28;20024;-60
2023/01/19 10:39:46;;;;;;;6.50;2.80;;;4.40;99.90;;;;;;5072458;28;20036;-61
2023/01/19 10:42:15;;;;;;;6.78;2.60;;;4.50;99.90;;;;;;5072186;28;20608;-61
2023/01/19 10:44:41;;;;;;;6.45;2.80;;;4.50;99.90;;;;;;5083783;28;20334;-61
2023/01/19 10:47:15;;;;;;;8.55;3.55;;;4.50;99.90;;;;;;5095038;28;20116;-61
2023/01/19 10:49:41;;;;;;;5.95;3.17;;;4.50;99.90;;;;;;5094517;28;20077;-61
2023/01/19 10:52:29;;;;;;;6.78;3.50;;;4.60;99.90;;;;;;5094306;28;20488;-61
2023/01/19 10:54:56;;;;;;;9.20;4.32;;;4.60;99.90;;;;;;5094354;28;20035;-61
2023/01/19 10:57:37;;;;;;;8.15;4.10;;;4.50;99.90;;;;;;5094766;28;20017;-61
2023/01/19 11:00:05;;;;;;;10.15;5.20;;;4.50;99.90;;;;;;5094251;28;20032;-61
2023/01/19 11:02:31;;;;;;;9.38;5.10;;;4.50;99.90;;;;;;5092945;28;20043;-61
2023/01/19 11:05:21;;;;;;;7.95;5.32;;;4.70;99.90;;;;;;5093831;28;20020;-61
2023/01/19 11:07:47;;;;;;;9.98;5.78;;;4.70;99.90;;;;;;5094187;28;20043;-61
2023/01/19 11:10:19;;;;;;;10.23;6.15;;;4.70;99.90;;;;;;5094113;28;20048;-61
2023/01/19 11:12:54;;;;;;;13.13;6.83;;;4.60;99.90;;;;;;5094152;28;20461;-61
2023/01/19 11:15:22;;;;;;;9.35;6.50;;;4.70;99.90;;;;;;5093953;28;20036;-61
2023/01/19 11:17:49;;;;;;;10.63;6.88;;;4.80;99.90;;;;;;5094189;28;20033;-61
2023/01/19 11:20:24;;;;;;;12.25;6.95;;;4.80;99.90;;;;;;5093907;28;20030;-61
2023/01/19 11:23:17;;;;;;;10.93;7.15;;;4.90;99.90;;;;;;5093928;28;20027;-61
2023/01/19 11:25:48;;;;;;;9.57;6.20;;;5.00;99.90;;;;;;5093918;28;20118;-61
2023/01/19 11:28:27;;;;;;;8.90;5.68;;;5.00;99.90;;;;;;5092775;28;20032;-61
2023/01/19 11:31:17;;;;;;;9.65;5.10;;;4.90;99.90;;;;;;5093363;28;20483;-62
2023/01/19 11:33:49;;;;;;;10.27;4.70;;;5.00;99.90;;;;;;5093346;28;20035;-61
2023/01/19 11:36:22;;;;;;;10.05;4.65;;;5.10;99.90;;;;;;5093986;28;20484;-61
2023/01/19 11:38:51;;;;;;;10.50;5.43;;;5.10;99.90;;;;;;5093636;28;20039;-61
2023/01/19 11:41:30;;;;;;;11.65;5.28;;;5.20;99.90;;;;;;5093109;28;20062;-61
2023/01/19 11:44:24;;;;;;;11.57;4.20;;;5.30;99.90;;;;;;5093199;28;20036;-59
2023/01/19 11:47:16;;;;;;;7.82;3.45;;;5.40;99.90;;;;;;5070515;28;20033;-60
2023/01/19 11:49:50;;;;;;;5.75;3.10;;;5.30;99.90;;;;;;5070892;28;20024;-60
2023/01/19 11:52:25;;;;;;;6.28;3.95;;;5.20;99.90;;;;;;5070800;28;20039;-60
2023/01/19 11:55:01;;;;;;;8.52;4.15;;;5.20;99.90;;;;;;5070939;28;20878;-61
2023/01/19 11:57:27;;;;;;;11.13;3.30;;;5.20;99.90;;;;;;5069972;28;20112;-60
2023/01/19 11:59:53;;;;;;;9.05;2.90;;;5.20;99.90;;;;;;5069921;28;20636;-61
2023/01/19 12:02:29;;;;;;;7.55;3.10;;;5.30;99.90;;;;;;5070331;28;20381;-61
2023/01/19 12:05:00;;;;;;;5.88;2.63;;;5.30;99.90;;;;;;5070965;28;20068;-61
2023/01/19 12:07:31;;;;;;;8.75;3.08;;;5.40;99.90;;;;;;5070498;28;20408;-61
2023/01/19 12:10:25;;;;;;;6.40;2.63;;;5.50;99.90;;;;;;5070165;28;20049;-62
2023/01/19 12:12:52;;;;;;;5.47;2.90;;;5.30;99.90;;;;;;5070238;28;20494;-61
2023/01/19 12:15:41;;;;;;;8.68;4.22;;;5.40;99.90;;;;;;5070039;28;20500;-61
2023/01/19 12:18:22;;;;;;;35.75;16.83;;;5.20;99.90;;;;;;5070122;28;20037;-61
2023/01/19 12:20:53;;;;;;;6.88;3.35;;;5.20;99.90;;;;;;5070418;28;20031;-60
2023/01/19 12:23:22;;;;;;;5.13;2.90;;;5.40;99.90;;;;;;5071104;28;20071;-61
2023/01/19 12:25:57;;;;;;;6.43;3.53;;;5.30;99.90;;;;;;5072986;28;20021;-61
2023/01/19 12:28:29;;;;;;;8.55;3.40;;;5.30;99.90;;;;;;5072116;28;20124;-61
2023/01/19 12:30:57;;;;;;;6.43;2.90;;;5.30;99.90;;;;;;5072062;28;20051;-61
2023/01/19 12:33:38;;;;;;;5.20;2.65;;;5.30;99.90;;;;;;5072054;28;20086;-61
2023/01/19 12:36:16;;;;;;;4.93;2.78;;;5.30;99.90;;;;;;5072099;28;20025;-61
2023/01/19 12:38:48;;;;;;;7.35;3.60;;;5.30;99.90;;;;;;5071820;28;20028;-61
2023/01/19 12:41:26;;;;;;;4.00;3.00;;;5.30;99.90;;;;;;5072204;28;20021;-59
2023/01/19 12:44:14;;;;;;;5.80;3.30;;;5.30;99.90;;;;;;5072090;28;20020;-60
2023/01/19 12:46:53;;;;;;;5.65;3.45;;;5.30;99.90;;;;;;5080655;28;20043;-60
2023/01/19 12:49:27;;;;;;;5.28;2.80;;;5.30;99.90;;;;;;5108371;28;20020;-60
2023/01/19 12:52:18;;;;;;;6.57;2.90;;;5.30;99.90;;;;;;5092484;28;20020;-60
2023/01/19 12:54:55;;;;;;;3.95;2.85;;;5.30;99.90;;;;;;5092065;28;20069;-59
2023/01/19 12:57:59;;;;;;;5.93;3.10;;;5.30;99.90;;;;;;5092441;28;20016;-60
2023/01/19 13:00:24;;;;;;;3.92;2.95;;;5.40;99.90;;;;;;5069737;28;20162;-62
2023/01/19 13:02:55;;;;;;;3.33;2.50;;;5.40;99.90;;;;;;5069231;28;20111;-61
2023/01/19 13:05:41;;;;;;;4.28;3.00;;;5.30;99.90;;;;;;5070021;28;20441;-61
2023/01/19 13:08:12;;;;;;;3.03;2.50;;;5.40;99.90;;;;;;5062275;28;20037;-60
2023/01/19 13:11:03;;;;;;;3.38;2.40;;;5.40;99.90;;;;;;5068926;28;20055;-60
2023/01/19 13:13:38;;;;;;;3.17;2.40;;;5.30;99.90;;;;;;5069172;28;20029;-61
2023/01/19 13:16:23;;;;;;;5.22;2.80;;;5.30;99.90;;;;;;5069356;28;20111;-60
2023/01/19 13:19:00;;;;;;;5.78;2.60;;;5.30;99.90;;;;;;5069525;28;20562;-60
2023/01/19 13:21:33;;;;;;;4.50;2.53;;;5.30;99.90;;;;;;5069495;28;20487;-60
2023/01/19 13:24:05;;;;;;;4.93;2.80;;;5.30;99.90;;;;;;5069470;28;20056;-60